createdAt,value
2017-11-13T00:00:28.795Z,1000.56
2017-11-13T00:01:28.779Z,1000.61
2017-11-13T00:02:28.772Z,1000.58
2017-11-13T00:03:28.759Z,1000.61
2017-11-13T00:04:28.742Z,1000.63
2017-11-13T00:05:28.727Z,1000.63
2017-11-13T00:06:28.712Z,1000.66
2017-11-13T00:07:28.702Z,1000.69
2017-11-13T00:08:28.689Z,1000.72
2017-11-13T00:09:28.670Z,1000.72
2017-11-13T00:10:28.657Z,1000.72
2017-11-13T00:11:28.644Z,1000.75
2017-11-13T00:12:28.635Z,1000.72
2017-11-13T00:13:28.615Z,1000.73
2017-11-13T00:14:28.602Z,1000.74
2017-11-13T00:15:28.588Z,1000.74
2017-11-13T00:16:28.575Z,1000.70
2017-11-13T00:17:28.566Z,1000.78
2017-11-13T00:18:28.548Z,1000.75
2017-11-13T00:19:28.536Z,1000.80
2017-11-13T00:20:28.519Z,1000.83
2017-11-13T00:21:28.504Z,1000.85
2017-11-13T00:22:28.498Z,1000.86
2017-11-13T00:23:28.478Z,1000.88
2017-11-13T00:24:28.466Z,1000.88
2017-11-13T00:25:28.450Z,1000.93
2017-11-13T00:26:28.437Z,1000.95
2017-11-13T00:27:28.437Z,1000.96
2017-11-13T00:28:28.415Z,1000.98
2017-11-13T00:29:28.395Z,1001.09
2017-11-13T00:30:28.386Z,1001.15
2017-11-13T00:31:28.367Z,1001.17
2017-11-13T00:32:28.357Z,1001.14
2017-11-13T00:33:28.341Z,1001.13
2017-11-13T00:34:28.329Z,1001.19
2017-11-13T00:35:28.311Z,1001.17
2017-11-13T00:36:28.302Z,1001.14
2017-11-13T00:37:28.291Z,1001.15
2017-11-13T00:38:28.269Z,1001.17
2017-11-13T00:39:28.260Z,1001.16
2017-11-13T00:40:28.243Z,1001.21
2017-11-13T00:41:28.232Z,1001.19
2017-11-13T00:42:28.223Z,1001.23
2017-11-13T00:43:28.199Z,1001.25
2017-11-13T00:44:28.192Z,1001.24
2017-11-13T00:45:28.172Z,1001.19
2017-11-13T00:46:28.157Z,1001.22
2017-11-13T00:47:28.151Z,1001.21
2017-11-13T00:48:28.131Z,1001.26
2017-11-13T00:49:28.117Z,1001.21
2017-11-13T00:50:28.106Z,1001.29
2017-11-13T00:51:28.091Z,1001.31
2017-11-13T00:52:28.081Z,1001.34
2017-11-13T00:53:28.061Z,1001.35
2017-11-13T00:54:28.051Z,1001.34
2017-11-13T00:55:28.033Z,1001.32
2017-11-13T00:56:28.022Z,1001.33
2017-11-13T00:57:28.011Z,1001.33
2017-11-13T00:58:27.992Z,1001.30
2017-11-13T00:59:27.988Z,1001.32
2017-11-13T01:00:27.965Z,1001.31
2017-11-13T01:01:27.949Z,1001.34
2017-11-13T01:02:27.944Z,1001.37
2017-11-13T01:03:27.922Z,1001.35
2017-11-13T01:04:27.908Z,1001.36
2017-11-13T01:05:27.894Z,1001.37
2017-11-13T01:06:27.880Z,1001.35
2017-11-13T01:07:27.869Z,1001.40
2017-11-13T01:08:27.856Z,1001.37
2017-11-13T01:09:27.839Z,1001.39
2017-11-13T01:10:27.828Z,1001.39
2017-11-13T01:11:27.810Z,1001.42
2017-11-13T01:12:27.798Z,1001.44
2017-11-13T01:13:27.790Z,1001.49
2017-11-13T01:14:27.771Z,1001.52
2017-11-13T01:15:27.755Z,1001.52
2017-11-13T01:16:27.748Z,1001.55
2017-11-13T01:17:27.750Z,1001.51
2017-11-13T01:18:27.711Z,1001.54
2017-11-13T01:19:27.719Z,1001.54
2017-11-13T01:20:27.686Z,1001.56
2017-11-13T01:21:27.671Z,1001.55
2017-11-13T01:22:27.663Z,1001.61
2017-11-13T01:23:27.644Z,1001.63
2017-11-13T01:24:27.629Z,1001.63
2017-11-13T01:25:27.614Z,1001.70
2017-11-13T01:26:27.601Z,1001.71
2017-11-13T01:27:27.590Z,1001.74
2017-11-13T01:28:27.573Z,1001.75
2017-11-13T01:29:27.562Z,1001.77
2017-11-13T01:30:27.546Z,1001.78
2017-11-13T01:31:27.533Z,1001.78
2017-11-13T01:32:27.521Z,1001.74
2017-11-13T01:33:27.504Z,1001.73
2017-11-13T01:34:27.491Z,1001.75
2017-11-13T01:35:27.477Z,1001.74
2017-11-13T01:36:27.461Z,1001.74
2017-11-13T01:37:27.467Z,1001.78
2017-11-13T01:38:27.436Z,1001.77
2017-11-13T01:39:27.420Z,1001.77
2017-11-13T01:40:27.407Z,1001.74
2017-11-13T01:41:27.391Z,1001.70
2017-11-13T01:42:27.376Z,1001.72
2017-11-13T01:43:27.363Z,1001.70
2017-11-13T01:44:27.349Z,1001.70
2017-11-13T01:45:27.334Z,1001.72
2017-11-13T01:46:27.322Z,1001.72
2017-11-13T01:47:27.307Z,1001.69
2017-11-13T01:48:27.298Z,1001.72
2017-11-13T01:49:27.282Z,1001.73
2017-11-13T01:50:27.266Z,1001.71
2017-11-13T01:51:27.249Z,1001.69
2017-11-13T01:52:27.237Z,1001.69
2017-11-13T01:53:27.224Z,1001.76
2017-11-13T01:54:27.209Z,1001.71
2017-11-13T01:55:27.202Z,1001.76
2017-11-13T01:56:27.181Z,1001.75
2017-11-13T01:57:27.169Z,1001.77
2017-11-13T01:58:27.151Z,1001.81
2017-11-13T01:59:27.149Z,1001.78
2017-11-13T02:00:27.126Z,1001.70
2017-11-13T02:01:27.111Z,1001.80
2017-11-13T02:02:27.098Z,1001.78
2017-11-13T02:03:27.087Z,1001.75
2017-11-13T02:04:27.069Z,1001.79
2017-11-13T02:05:27.057Z,1001.77
2017-11-13T02:06:27.042Z,1001.83
2017-11-13T02:07:27.027Z,1001.80
2017-11-13T02:08:27.016Z,1001.82
2017-11-13T02:09:27.002Z,1001.86
2017-11-13T02:10:26.984Z,1001.88
2017-11-13T02:11:26.975Z,1001.89
2017-11-13T02:12:26.961Z,1001.86
2017-11-13T02:13:26.949Z,1001.92
2017-11-13T02:14:26.936Z,1001.96
2017-11-13T02:15:26.919Z,1001.98
2017-11-13T02:16:26.905Z,1001.95
2017-11-13T02:17:26.889Z,1001.93
2017-11-13T02:18:26.873Z,1001.95
2017-11-13T02:19:26.864Z,1001.97
2017-11-13T02:20:26.850Z,1001.93
2017-11-13T02:21:26.839Z,1001.89
2017-11-13T02:22:26.817Z,1001.87
2017-11-13T02:23:26.805Z,1001.84
2017-11-13T02:24:26.791Z,1001.79
2017-11-13T02:25:26.777Z,1001.82
2017-11-13T02:26:26.765Z,1001.85
2017-11-13T02:27:26.748Z,1001.90
2017-11-13T02:28:26.735Z,1001.87
2017-11-13T02:29:26.723Z,1001.86
2017-11-13T02:30:26.706Z,1001.92
2017-11-13T02:31:26.697Z,1001.97
2017-11-13T02:32:26.684Z,1001.99
2017-11-13T02:33:26.708Z,1002.02
2017-11-13T02:34:26.653Z,1002.10
2017-11-13T02:35:26.638Z,1002.15
2017-11-13T02:36:26.623Z,1002.21
2017-11-13T02:37:26.611Z,1002.25
2017-11-13T02:38:26.596Z,1002.27
2017-11-13T02:39:26.584Z,1002.32
2017-11-13T02:40:26.570Z,1002.32
2017-11-13T02:41:26.557Z,1002.39
2017-11-13T02:42:26.555Z,1002.44
2017-11-13T02:43:26.527Z,1002.37
2017-11-13T02:44:26.515Z,1002.41
2017-11-13T02:45:26.499Z,1002.40
2017-11-13T02:46:26.488Z,1002.41
2017-11-13T02:47:26.471Z,1002.36
2017-11-13T02:48:26.458Z,1002.36
2017-11-13T02:49:26.445Z,1002.41
2017-11-13T02:50:26.430Z,1002.40
2017-11-13T02:51:26.421Z,1002.39
2017-11-13T02:52:26.403Z,1002.43
2017-11-13T02:53:26.389Z,1002.44
2017-11-13T02:54:26.378Z,1002.48
2017-11-13T02:55:26.366Z,1002.50
2017-11-13T02:56:26.352Z,1002.53
2017-11-13T02:57:26.334Z,1002.56
2017-11-13T02:58:26.321Z,1002.54
2017-11-13T02:59:26.307Z,1002.51
2017-11-13T03:00:26.292Z,1002.55
2017-11-13T03:01:26.282Z,1002.61
2017-11-13T03:02:26.264Z,1002.57
2017-11-13T03:03:26.251Z,1002.58
2017-11-13T03:04:26.246Z,1002.60
2017-11-13T03:05:26.231Z,1002.60
2017-11-13T03:06:26.209Z,1002.68
2017-11-13T03:07:26.196Z,1002.69
2017-11-13T03:08:41.035Z,1002.70
2017-11-13T03:09:26.173Z,1002.71
2017-11-13T03:10:26.155Z,1002.73
2017-11-13T03:11:26.141Z,1002.72
2017-11-13T03:12:26.134Z,1002.75
2017-11-13T03:13:26.115Z,1002.80
2017-11-13T03:14:26.101Z,1002.82
2017-11-13T03:15:26.088Z,1002.85
2017-11-13T03:16:26.074Z,1002.90
2017-11-13T03:17:26.059Z,1002.85
2017-11-13T03:18:26.048Z,1002.85
2017-11-13T03:19:26.039Z,1002.92
2017-11-13T03:20:26.022Z,1002.96
2017-11-13T03:21:26.004Z,1002.94
2017-11-13T03:22:25.995Z,1002.99
2017-11-13T03:23:25.977Z,1002.99
2017-11-13T03:24:25.968Z,1003.03
2017-11-13T03:25:25.963Z,1003.04
2017-11-13T03:26:25.937Z,1003.07
2017-11-13T03:27:25.930Z,1003.09
2017-11-13T03:28:25.908Z,1003.11
2017-11-13T03:29:25.895Z,1003.16
2017-11-13T03:30:25.883Z,1003.19
2017-11-13T03:31:25.868Z,1003.15
2017-11-13T03:32:25.853Z,1003.18
2017-11-13T03:33:25.841Z,1003.20
2017-11-13T03:34:25.834Z,1003.19
2017-11-13T03:35:25.812Z,1003.21
2017-11-13T03:36:25.801Z,1003.27
2017-11-13T03:37:25.785Z,1003.29
2017-11-13T03:38:25.771Z,1003.27
2017-11-13T03:39:25.759Z,1003.29
2017-11-13T03:40:25.744Z,1003.26
2017-11-13T03:41:25.730Z,1003.32
2017-11-13T03:42:25.715Z,1003.28
2017-11-13T03:43:25.703Z,1003.32
2017-11-13T03:44:25.690Z,1003.30
2017-11-13T03:45:25.677Z,1003.31
2017-11-13T03:46:25.668Z,1003.28
2017-11-13T03:47:25.657Z,1003.32
2017-11-13T03:48:25.634Z,1003.33
2017-11-13T03:49:25.625Z,1003.33
2017-11-13T03:50:25.613Z,1003.38
2017-11-13T03:51:25.597Z,1003.31
2017-11-13T03:52:25.584Z,1003.37
2017-11-13T03:53:25.569Z,1003.44
2017-11-13T03:54:25.558Z,1003.42
2017-11-13T03:55:25.540Z,1003.46
2017-11-13T03:56:25.526Z,1003.43
2017-11-13T03:57:25.514Z,1003.51
2017-11-13T03:58:25.501Z,1003.53
2017-11-13T03:59:25.491Z,1003.52
2017-11-13T04:00:25.475Z,1003.49
2017-11-13T04:01:25.461Z,1003.58
2017-11-13T04:02:25.445Z,1003.60
2017-11-13T04:03:25.430Z,1003.55
2017-11-13T04:04:25.418Z,1003.51
2017-11-13T04:05:25.402Z,1003.59
2017-11-13T04:06:25.387Z,1003.61
2017-11-13T04:07:25.381Z,1003.57
2017-11-13T04:08:25.363Z,1003.58
2017-11-13T04:09:25.348Z,1003.61
2017-11-13T04:10:25.335Z,1003.63
2017-11-13T04:11:25.322Z,1003.63
2017-11-13T04:12:25.319Z,1003.65
2017-11-13T04:13:25.293Z,1003.68
2017-11-13T04:14:25.284Z,1003.73
2017-11-13T04:15:25.267Z,1003.76
2017-11-13T04:16:25.255Z,1003.75
2017-11-13T04:17:25.241Z,1003.77
2017-11-13T04:18:25.227Z,1003.78
2017-11-13T04:19:25.214Z,1003.85
2017-11-13T04:20:25.199Z,1003.86
2017-11-13T04:21:25.189Z,1003.89
2017-11-13T04:22:25.172Z,1003.95
2017-11-13T04:23:25.160Z,1003.96
2017-11-13T04:24:25.146Z,1003.94
2017-11-13T04:25:25.131Z,1003.98
2017-11-13T04:26:25.122Z,1003.95
2017-11-13T04:27:25.105Z,1003.97
2017-11-13T04:28:25.099Z,1004.00
2017-11-13T04:29:25.077Z,1004.03
2017-11-13T04:30:25.064Z,1004.06
2017-11-13T04:31:25.064Z,1004.06
2017-11-13T04:32:25.039Z,1004.03
2017-11-13T04:33:25.028Z,1004.08
2017-11-13T04:34:25.024Z,1004.11
2017-11-13T04:35:24.997Z,1004.12
2017-11-13T04:36:24.985Z,1004.13
2017-11-13T04:37:24.969Z,1004.18
2017-11-13T04:38:24.971Z,1004.25
2017-11-13T04:39:24.943Z,1004.24
2017-11-13T04:40:24.930Z,1004.24
2017-11-13T04:41:24.918Z,1004.21
2017-11-13T04:42:24.902Z,1004.25
2017-11-13T04:43:24.888Z,1004.29
2017-11-13T04:44:24.876Z,1004.32
2017-11-13T04:45:24.862Z,1004.29
2017-11-13T04:46:24.849Z,1004.30
2017-11-13T04:47:24.845Z,1004.33
2017-11-13T04:48:24.821Z,1004.34
2017-11-13T04:49:24.816Z,1004.33
2017-11-13T04:50:24.794Z,1004.34
2017-11-13T04:51:24.781Z,1004.32
2017-11-13T04:52:24.774Z,1004.30
2017-11-13T04:53:24.756Z,1004.27
2017-11-13T04:54:24.745Z,1004.33
2017-11-13T04:55:24.729Z,1004.33
2017-11-13T04:56:24.714Z,1004.30
2017-11-13T04:57:24.710Z,1004.30
2017-11-13T04:58:24.685Z,1004.34
2017-11-13T04:59:24.674Z,1004.31
2017-11-13T05:00:24.661Z,1004.34
2017-11-13T05:01:24.650Z,1004.32
2017-11-13T05:02:24.632Z,1004.29
2017-11-13T05:03:24.620Z,1004.38
2017-11-13T05:04:24.606Z,1004.39
2017-11-13T05:05:24.595Z,1004.41
2017-11-13T05:06:24.576Z,1004.42
2017-11-13T05:07:24.564Z,1004.42
2017-11-13T05:08:24.557Z,1004.43
2017-11-13T05:09:24.537Z,1004.45
2017-11-13T05:10:24.525Z,1004.48
2017-11-13T05:11:24.511Z,1004.55
2017-11-13T05:12:24.497Z,1004.49
2017-11-13T05:13:24.497Z,1004.53
2017-11-13T05:14:24.470Z,1004.52
2017-11-13T05:15:24.483Z,1004.54
2017-11-13T05:16:24.445Z,1004.55
2017-11-13T05:17:24.435Z,1004.61
2017-11-13T05:18:24.417Z,1004.58
2017-11-13T05:19:24.403Z,1004.59
2017-11-13T05:20:24.390Z,1004.61
2017-11-13T05:21:24.383Z,1004.66
2017-11-13T05:22:24.362Z,1004.67
2017-11-13T05:23:24.364Z,1004.65
2017-11-13T05:24:24.337Z,1004.71
2017-11-13T05:25:24.336Z,1004.72
2017-11-13T05:26:24.307Z,1004.76
2017-11-13T05:27:24.295Z,1004.78
2017-11-13T05:28:24.290Z,1004.77
2017-11-13T05:29:24.266Z,1004.78
2017-11-13T05:30:24.258Z,1004.77
2017-11-13T05:31:24.240Z,1004.79
2017-11-13T05:32:24.230Z,1004.82
2017-11-13T05:33:24.217Z,1004.81
2017-11-13T05:34:24.201Z,1004.85
2017-11-13T05:35:24.193Z,1004.83
2017-11-13T05:36:24.173Z,1004.86
2017-11-13T05:37:24.159Z,1004.89
2017-11-13T05:38:24.147Z,1004.87
2017-11-13T05:39:24.134Z,1004.86
2017-11-13T05:40:24.125Z,1004.91
2017-11-13T05:41:24.105Z,1004.90
2017-11-13T05:42:24.099Z,1004.91
2017-11-13T05:43:24.081Z,1004.93
2017-11-13T05:44:24.066Z,1004.97
2017-11-13T05:45:24.052Z,1005.01
2017-11-13T05:46:24.039Z,1005.02
2017-11-13T05:47:24.030Z,1005.05
2017-11-13T05:48:24.014Z,1005.02
2017-11-13T05:49:23.998Z,1005.05
2017-11-13T05:50:23.985Z,1005.08
2017-11-13T05:51:23.972Z,1005.09
2017-11-13T05:52:23.961Z,1005.11
2017-11-13T05:53:23.944Z,1005.14
2017-11-13T05:54:23.943Z,1005.18
2017-11-13T05:55:23.920Z,1005.21
2017-11-13T05:56:23.922Z,1005.24
2017-11-13T05:57:23.892Z,1005.26
2017-11-13T05:58:23.885Z,1005.33
2017-11-13T05:59:23.868Z,1005.37
2017-11-13T06:00:23.859Z,1005.38
2017-11-13T06:01:23.839Z,1005.42
2017-11-13T06:02:23.824Z,1005.41
2017-11-13T06:03:23.816Z,1005.40
2017-11-13T06:04:23.801Z,1005.43
2017-11-13T06:05:23.783Z,1005.43
2017-11-13T06:06:23.770Z,1005.48
2017-11-13T06:07:23.756Z,1005.42
2017-11-13T06:08:23.743Z,1005.47
2017-11-13T06:09:23.728Z,1005.48
2017-11-13T06:10:23.717Z,1005.55
2017-11-13T06:11:23.710Z,1005.56
2017-11-13T06:12:23.689Z,1005.58
2017-11-13T06:13:23.675Z,1005.57
2017-11-13T06:14:23.664Z,1005.57
2017-11-13T06:15:23.649Z,1005.57
2017-11-13T06:16:23.639Z,1005.59
2017-11-13T06:17:23.637Z,1005.59
2017-11-13T06:18:23.608Z,1005.61
2017-11-13T06:19:23.599Z,1005.65
2017-11-13T06:20:23.581Z,1005.62
2017-11-13T06:21:23.578Z,1005.64
2017-11-13T06:22:23.553Z,1005.61
2017-11-13T06:23:23.539Z,1005.69
2017-11-13T06:24:23.529Z,1005.70
2017-11-13T06:25:23.523Z,1005.74
2017-11-13T06:26:23.498Z,1005.71
2017-11-13T06:27:23.488Z,1005.74
2017-11-13T06:28:23.472Z,1005.72
2017-11-13T06:29:23.479Z,1005.76
2017-11-13T06:30:23.448Z,1005.79
2017-11-13T06:31:23.434Z,1005.78
2017-11-13T06:32:23.418Z,1005.86
2017-11-13T06:33:23.409Z,1005.86
2017-11-13T06:34:23.401Z,1005.89
2017-11-13T06:35:23.392Z,1005.90
2017-11-13T06:36:23.364Z,1005.91
2017-11-13T06:37:23.351Z,1005.94
2017-11-13T06:38:23.336Z,1005.97
2017-11-13T06:39:23.322Z,1005.99
2017-11-13T06:40:23.319Z,1006.02
2017-11-13T06:41:23.299Z,1006.10
2017-11-13T06:42:23.281Z,1006.10
2017-11-13T06:43:23.270Z,1006.10
2017-11-13T06:44:23.263Z,1006.14
2017-11-13T06:45:23.245Z,1006.13
2017-11-13T06:46:23.227Z,1006.10
2017-11-13T06:47:23.215Z,1006.13
2017-11-13T06:48:23.201Z,1006.17
2017-11-13T06:49:23.189Z,1006.17
2017-11-13T06:50:23.172Z,1006.19
2017-11-13T06:51:23.158Z,1006.19
2017-11-13T06:52:23.146Z,1006.20
2017-11-13T06:53:23.132Z,1006.19
2017-11-13T06:54:23.119Z,1006.25
2017-11-13T06:55:23.109Z,1006.28
2017-11-13T06:56:23.091Z,1006.33
2017-11-13T06:57:23.077Z,1006.31
2017-11-13T06:58:23.061Z,1006.33
2017-11-13T06:59:23.051Z,1006.34
2017-11-13T07:00:23.036Z,1006.30
2017-11-13T07:01:23.026Z,1006.39
2017-11-13T07:02:23.008Z,1006.38
2017-11-13T07:03:23.018Z,1006.44
2017-11-13T07:04:22.989Z,1006.46
2017-11-13T07:05:22.967Z,1006.49
2017-11-13T07:06:22.956Z,1006.52
2017-11-13T07:07:22.940Z,1006.51
2017-11-13T07:08:22.929Z,1006.52
2017-11-13T07:09:22.913Z,1006.56
2017-11-13T07:10:22.899Z,1006.55
2017-11-13T07:11:22.892Z,1006.60
2017-11-13T07:12:22.873Z,1006.67
2017-11-13T07:13:22.860Z,1006.64
2017-11-13T07:14:22.845Z,1006.66
2017-11-13T07:15:22.832Z,1006.63
2017-11-13T07:16:22.818Z,1006.74
2017-11-13T07:17:22.810Z,1006.72
2017-11-13T07:18:22.798Z,1006.77
2017-11-13T07:19:22.777Z,1006.79
2017-11-13T07:20:22.770Z,1006.76
2017-11-13T07:21:22.749Z,1006.80
2017-11-13T07:22:22.739Z,1006.82
2017-11-13T07:23:22.725Z,1006.79
2017-11-13T07:24:22.710Z,1006.84
2017-11-13T07:25:22.700Z,1006.84
2017-11-13T07:26:22.686Z,1006.87
2017-11-13T07:27:22.670Z,1006.89
2017-11-13T07:28:22.657Z,1006.90
2017-11-13T07:29:22.641Z,1006.90
2017-11-13T07:30:22.628Z,1006.92
2017-11-13T07:31:22.617Z,1006.88
2017-11-13T07:32:22.601Z,1006.91
2017-11-13T07:33:22.699Z,1006.92
2017-11-13T07:34:22.581Z,1006.91
2017-11-13T07:35:22.563Z,1006.91
2017-11-13T07:36:22.552Z,1006.91
2017-11-13T07:37:22.535Z,1006.93
2017-11-13T07:38:22.528Z,1006.91
2017-11-13T07:39:22.507Z,1006.96
2017-11-13T07:40:22.493Z,1006.94
2017-11-13T07:41:22.478Z,1006.98
2017-11-13T07:42:22.470Z,1006.92
2017-11-13T07:43:22.455Z,1006.95
2017-11-13T07:44:22.447Z,1006.96
2017-11-13T07:45:22.427Z,1006.96
2017-11-13T07:46:22.413Z,1007.02
2017-11-13T07:47:22.402Z,1007.02
2017-11-13T07:48:22.389Z,1007.04
2017-11-13T07:49:22.373Z,1007.07
2017-11-13T07:50:22.392Z,1007.09
2017-11-13T07:51:22.352Z,1007.07
2017-11-13T07:52:22.342Z,1007.08
2017-11-13T07:53:22.325Z,1007.10
2017-11-13T07:54:22.316Z,1007.10
2017-11-13T07:55:22.297Z,1007.16
2017-11-13T07:56:22.282Z,1007.19
2017-11-13T07:57:22.271Z,1007.20
2017-11-13T07:58:22.265Z,1007.18
2017-11-13T07:59:22.245Z,1007.17
2017-11-13T08:00:22.228Z,1007.26
2017-11-13T08:01:22.214Z,1007.27
2017-11-13T08:02:22.227Z,1007.33
2017-11-13T08:03:22.187Z,1007.34
2017-11-13T08:04:22.177Z,1007.37
2017-11-13T08:05:22.161Z,1007.35
2017-11-13T08:06:22.148Z,1007.42
2017-11-13T08:07:22.142Z,1007.48
2017-11-13T08:08:22.123Z,1007.49
2017-11-13T08:09:22.107Z,1007.50
2017-11-13T08:10:22.096Z,1007.50
2017-11-13T08:11:22.084Z,1007.52
2017-11-13T08:12:22.099Z,1007.55
2017-11-13T08:13:22.057Z,1007.54
2017-11-13T08:14:22.053Z,1007.59
2017-11-13T08:15:22.029Z,1007.66
2017-11-13T08:16:22.021Z,1007.67
2017-11-13T08:17:22.005Z,1007.69
2017-11-13T08:18:21.998Z,1007.72
2017-11-13T08:19:21.980Z,1007.79
2017-11-13T08:20:21.964Z,1007.82
2017-11-13T08:21:21.948Z,1007.79
2017-11-13T08:22:21.938Z,1007.83
2017-11-13T08:23:21.925Z,1007.86
2017-11-13T08:24:21.917Z,1007.83
2017-11-13T08:25:21.900Z,1007.91
2017-11-13T08:26:21.884Z,1007.94
2017-11-13T08:27:21.878Z,1007.96
2017-11-13T08:28:21.863Z,1007.99
2017-11-13T08:29:21.846Z,1008.00
2017-11-13T08:30:21.833Z,1007.99
2017-11-13T08:31:21.822Z,1008.03
2017-11-13T08:32:21.809Z,1008.03
2017-11-13T08:33:21.795Z,1008.04
2017-11-13T08:34:21.790Z,1008.06
2017-11-13T08:35:21.771Z,1008.10
2017-11-13T08:36:21.758Z,1008.11
2017-11-13T08:37:21.745Z,1008.10
2017-11-13T08:38:21.733Z,1008.11
2017-11-13T08:39:21.718Z,1008.06
2017-11-13T08:40:21.706Z,1008.09
2017-11-13T08:41:21.692Z,1008.11
2017-11-13T08:42:21.681Z,1008.13
2017-11-13T08:43:21.670Z,1008.14
2017-11-13T08:44:21.659Z,1008.16
2017-11-13T08:45:21.650Z,1008.16
2017-11-13T08:46:21.636Z,1008.17
2017-11-13T08:47:21.625Z,1008.21
2017-11-13T08:48:21.615Z,1008.22
2017-11-13T08:49:21.594Z,1008.23
2017-11-13T08:50:21.586Z,1008.23
2017-11-13T08:51:21.570Z,1008.20
2017-11-13T08:52:21.557Z,1008.28
2017-11-13T08:53:21.546Z,1008.30
2017-11-13T08:54:21.542Z,1008.35
2017-11-13T08:55:21.524Z,1008.36
2017-11-13T08:56:21.507Z,1008.43
2017-11-13T08:57:21.495Z,1008.42
2017-11-13T08:58:21.484Z,1008.40
2017-11-13T08:59:21.471Z,1008.45
2017-11-13T09:00:21.460Z,1008.46
2017-11-13T09:01:21.450Z,1008.51
2017-11-13T09:02:21.435Z,1008.53
2017-11-13T09:03:21.425Z,1008.53
2017-11-13T09:04:21.413Z,1008.54
2017-11-13T09:05:21.408Z,1008.56
2017-11-13T09:06:21.388Z,1008.50
2017-11-13T09:07:21.380Z,1008.53
2017-11-13T09:08:21.366Z,1008.55
2017-11-13T09:09:21.353Z,1008.57
2017-11-13T09:10:21.357Z,1008.56
2017-11-13T09:11:21.329Z,1008.57
2017-11-13T09:12:21.320Z,1008.56
2017-11-13T09:13:21.306Z,1008.56
2017-11-13T09:14:21.293Z,1008.56
2017-11-13T09:15:21.284Z,1008.64
2017-11-13T09:16:21.274Z,1008.63
2017-11-13T09:17:21.261Z,1008.62
2017-11-13T09:18:21.256Z,1008.65
2017-11-13T09:19:21.240Z,1008.68
2017-11-13T09:20:21.233Z,1008.67
2017-11-13T09:21:21.231Z,1008.61
2017-11-13T09:22:21.214Z,1008.63
2017-11-13T09:23:21.191Z,1008.62
2017-11-13T09:24:21.184Z,1008.61
2017-11-13T09:25:21.168Z,1008.63
2017-11-13T09:26:21.157Z,1008.65
2017-11-13T09:27:21.147Z,1008.67
2017-11-13T09:28:21.135Z,1008.72
2017-11-13T09:29:21.135Z,1008.73
2017-11-13T09:30:21.114Z,1008.70
2017-11-13T09:31:21.106Z,1008.73
2017-11-13T09:32:21.090Z,1008.71
2017-11-13T09:33:21.083Z,1008.73
2017-11-13T09:34:21.065Z,1008.76
2017-11-13T09:35:21.054Z,1008.75
2017-11-13T09:36:21.044Z,1008.86
2017-11-13T09:37:21.030Z,1008.84
2017-11-13T09:38:21.027Z,1008.90
2017-11-13T09:39:21.009Z,1008.91
2017-11-13T09:40:21.004Z,1008.94
2017-11-13T09:41:20.987Z,1008.96
2017-11-13T09:42:20.984Z,1009.00
2017-11-13T09:43:20.968Z,1009.01
2017-11-13T09:44:20.958Z,1009.04
2017-11-13T09:45:20.944Z,1009.04
2017-11-13T09:46:20.938Z,1009.08
2017-11-13T09:47:20.927Z,1009.10
2017-11-13T09:48:20.915Z,1009.13
2017-11-13T09:49:20.917Z,1009.16
2017-11-13T09:50:20.895Z,1009.17
2017-11-13T09:51:20.885Z,1009.15
2017-11-13T09:52:20.876Z,1009.18
2017-11-13T09:53:20.865Z,1009.17
2017-11-13T09:54:20.854Z,1009.22
2017-11-13T09:55:20.844Z,1009.14
2017-11-13T09:56:20.838Z,1009.11
2017-11-13T09:57:20.832Z,1009.16
2017-11-13T09:58:20.818Z,1009.16
2017-11-13T09:59:20.807Z,1009.17
2017-11-13T10:00:20.801Z,1009.19
2017-11-13T10:01:20.794Z,1009.22
2017-11-13T10:02:20.785Z,1009.27
2017-11-13T10:03:20.770Z,1009.25
2017-11-13T10:04:20.762Z,1009.32
2017-11-13T10:05:20.760Z,1009.34
2017-11-13T10:06:20.758Z,1009.34
2017-11-13T10:07:20.739Z,1009.31
2017-11-13T10:08:20.733Z,1009.33
2017-11-13T10:09:20.726Z,1009.36
2017-11-13T10:10:20.734Z,1009.36
2017-11-13T10:11:20.709Z,1009.37
2017-11-13T10:12:20.700Z,1009.34
2017-11-13T10:13:20.694Z,1009.37
2017-11-13T10:14:20.685Z,1009.40
2017-11-13T10:15:20.677Z,1009.39
2017-11-13T10:16:20.668Z,1009.39
2017-11-13T10:17:20.669Z,1009.42
2017-11-13T10:18:20.654Z,1009.44
2017-11-13T10:19:20.658Z,1009.48
2017-11-13T10:20:20.643Z,1009.53
2017-11-13T10:21:20.637Z,1009.48
2017-11-13T10:22:20.631Z,1009.52
2017-11-13T10:23:20.623Z,1009.53
2017-11-13T10:24:20.617Z,1009.57
2017-11-13T10:25:20.615Z,1009.53
2017-11-13T10:26:20.605Z,1009.55
2017-11-13T10:27:20.600Z,1009.57
2017-11-13T10:28:20.593Z,1009.60
2017-11-13T10:29:20.596Z,1009.55
2017-11-13T10:30:20.585Z,1009.58
2017-11-13T10:31:20.580Z,1009.55
2017-11-13T10:32:20.582Z,1009.59
2017-11-13T10:33:20.582Z,1009.57
2017-11-13T10:34:20.560Z,1009.52
2017-11-13T10:35:20.558Z,1009.59
2017-11-13T10:36:20.551Z,1009.63
2017-11-13T10:37:20.546Z,1009.60
2017-11-13T10:38:20.535Z,1009.66
2017-11-13T10:39:20.530Z,1009.67
2017-11-13T10:40:20.524Z,1009.73
2017-11-13T10:41:20.519Z,1009.72
2017-11-13T10:42:20.515Z,1009.74
2017-11-13T10:43:20.515Z,1009.72
2017-11-13T10:44:20.535Z,1009.71
2017-11-13T10:45:20.498Z,1009.76
2017-11-13T10:46:20.491Z,1009.73
2017-11-13T10:47:20.491Z,1009.76
2017-11-13T10:48:20.492Z,1009.74
2017-11-13T10:49:20.503Z,1009.73
2017-11-13T10:50:20.489Z,1009.76
2017-11-13T10:51:20.470Z,1009.72
2017-11-13T10:52:20.465Z,1009.75
2017-11-13T10:53:20.462Z,1009.81
2017-11-13T10:54:20.459Z,1009.77
2017-11-13T10:55:20.458Z,1009.80
2017-11-13T10:56:20.450Z,1009.80
2017-11-13T10:57:20.448Z,1009.86
2017-11-13T10:58:20.442Z,1009.83
2017-11-13T10:59:20.441Z,1009.78
2017-11-13T11:00:20.438Z,1009.78
2017-11-13T11:01:20.433Z,1009.80
2017-11-13T11:02:20.430Z,1009.80
2017-11-13T11:03:20.432Z,1009.81
2017-11-13T11:04:20.424Z,1009.85
2017-11-13T11:05:20.422Z,1009.75
2017-11-13T11:06:20.418Z,1009.77
2017-11-13T11:07:20.415Z,1009.82
2017-11-13T11:08:20.416Z,1009.82
2017-11-13T11:09:20.424Z,1009.80
2017-11-13T11:10:20.412Z,1009.85
2017-11-13T11:11:20.405Z,1009.81
2017-11-13T11:12:20.405Z,1009.83
2017-11-13T11:13:20.399Z,1009.83
2017-11-13T11:14:20.397Z,1009.85
2017-11-13T11:15:20.401Z,1009.88
2017-11-13T11:16:20.392Z,1009.89
2017-11-13T11:17:20.390Z,1009.89
2017-11-13T11:18:20.394Z,1009.90
2017-11-13T11:19:20.385Z,1009.94
2017-11-13T11:20:20.392Z,1009.90
2017-11-13T11:21:20.387Z,1009.89
2017-11-13T11:22:20.408Z,1009.92
2017-11-13T11:23:20.395Z,1009.91
2017-11-13T11:24:20.375Z,1009.90
2017-11-13T11:25:20.374Z,1009.92
2017-11-13T11:26:20.370Z,1009.93
2017-11-13T11:27:20.373Z,1009.89
2017-11-13T11:28:20.373Z,1009.90
2017-11-13T11:29:20.367Z,1009.86
2017-11-13T11:30:20.365Z,1009.89
2017-11-13T11:31:20.364Z,1009.88
2017-11-13T11:32:20.370Z,1009.82
2017-11-13T11:33:20.371Z,1009.80
2017-11-13T11:34:20.372Z,1009.84
2017-11-13T11:35:20.356Z,1009.88
2017-11-13T11:36:20.352Z,1009.85
2017-11-13T11:37:20.360Z,1009.88
2017-11-13T11:38:20.347Z,1009.86
2017-11-13T11:39:20.346Z,1009.85
2017-11-13T11:40:20.343Z,1009.84
2017-11-13T11:41:20.343Z,1009.87
2017-11-13T11:42:20.339Z,1009.90
2017-11-13T11:43:20.340Z,1009.92
2017-11-13T11:44:20.336Z,1009.93
2017-11-13T11:45:20.342Z,1009.90
2017-11-13T11:46:20.356Z,1009.86
2017-11-13T11:47:20.343Z,1009.93
2017-11-13T11:48:20.331Z,1009.93
2017-11-13T11:49:20.330Z,1009.95
2017-11-13T11:50:20.326Z,1009.94
2017-11-13T11:51:20.324Z,1009.93
2017-11-13T11:52:20.322Z,1009.95
2017-11-13T11:53:20.322Z,1009.94
2017-11-13T11:54:20.319Z,1009.99
2017-11-13T11:55:20.318Z,1010.04
2017-11-13T11:56:20.315Z,1010.03
2017-11-13T11:57:20.335Z,1010.07
2017-11-13T11:58:20.314Z,1010.10
2017-11-13T11:59:20.311Z,1010.14
2017-11-13T12:00:20.309Z,1010.09
2017-11-13T12:01:20.306Z,1010.08
2017-11-13T12:02:20.306Z,1010.04
2017-11-13T12:03:20.305Z,1010.07
2017-11-13T12:04:20.303Z,1010.09
2017-11-13T12:05:20.302Z,1010.04